Time;durP1;ratioP1;P1;durP2;ratioP2;P2;SDS_P1;SDS_P2;PMS_P1;PMS_P2;Temp;Humidity;BMP_temperature;BMP_pressure;BME280_temperature;BME280_humidity;BME280_pressure;Samples;Min_cycle;Max_cycle;Signal;HPM_P1;HPM_P2
2022/10/15 00:01:30;;;;;;;88.57;60.20;;;11.90;99.90;;;;;;5035835;28;20115;-46
2022/10/15 00:03:55;;;;;;;85.43;59.85;;;11.80;99.90;;;;;;5038800;28;20165;-44
2022/10/15 00:06:21;;;;;;;89.97;60.00;;;11.90;99.90;;;;;;5042608;28;20162;-44
2022/10/15 00:08:47;;;;;;;91.65;62.17;;;11.80;99.90;;;;;;5044599;28;20713;-49
2022/10/15 00:11:19;;;;;;;89.45;59.78;;;11.80;99.90;;;;;;5042129;28;20033;-48
2022/10/15 00:13:45;;;;;;;89.25;60.03;;;11.80;99.90;;;;;;5048644;28;20491;-47
2022/10/15 00:16:13;;;;;;;87.57;60.90;;;11.80;99.90;;;;;;5033870;28;20053;-47
2022/10/15 00:18:39;;;;;;;89.38;61.42;;;11.80;99.90;;;;;;5036099;28;20087;-49
2022/10/15 00:21:09;;;;;;;85.43;60.50;;;11.90;99.90;;;;;;5051841;28;20435;-47
2022/10/15 00:23:35;;;;;;;79.78;56.85;;;11.80;99.90;;;;;;5038026;28;20036;-50
2022/10/15 00:26:06;;;;;;;92.28;61.55;;;11.80;99.90;;;;;;5052545;28;20044;-46
2022/10/15 00:28:32;;;;;;;91.45;59.03;;;11.90;99.90;;;;;;5035619;28;20045;-44
2022/10/15 00:31:02;;;;;;;82.07;60.10;;;11.80;99.90;;;;;;5043309;28;20040;-47
2022/10/15 00:33:28;;;;;;;84.07;58.97;;;11.80;99.90;;;;;;5042610;28;20380;-49
2022/10/15 00:36:12;;;;;;;88.00;59.03;;;11.90;99.90;;;;;;5038411;28;20060;-48
2022/10/15 00:38:39;;;;;;;80.70;56.10;;;11.80;99.90;;;;;;5050329;28;20567;-48
2022/10/15 00:41:06;;;;;;;77.00;56.35;;;11.90;99.90;;;;;;5038540;28;20102;-50
2022/10/15 00:43:46;;;;;;;83.20;57.72;;;11.90;99.90;;;;;;5042146;28;20401;-47
2022/10/15 00:46:23;;;;;;;79.78;56.25;;;11.90;99.90;;;;;;5047465;28;20529;-45
2022/10/15 00:48:53;;;;;;;80.43;55.10;;;11.90;99.90;;;;;;5036320;28;20056;-48
2022/10/15 00:51:21;;;;;;;78.05;52.42;;;11.90;99.90;;;;;;5044420;28;20400;-49
2022/10/15 00:53:48;;;;;;;83.32;57.13;;;12.00;99.90;;;;;;5048447;28;20061;-45
2022/10/15 00:56:16;;;;;;;76.70;52.85;;;11.90;99.90;;;;;;5032527;28;20495;-50
2022/10/15 00:58:42;;;;;;;81.18;52.90;;;11.90;99.90;;;;;;5035768;28;20386;-47
2022/10/15 01:01:08;;;;;;;79.40;52.85;;;11.90;99.90;;;;;;5046222;28;20071;-47
2022/10/15 01:03:34;;;;;;;78.05;51.95;;;11.90;99.90;;;;;;5045919;28;20131;-50
2022/10/15 01:06:01;;;;;;;81.85;55.83;;;11.90;99.90;;;;;;5035943;28;20055;-45
2022/10/15 01:08:27;;;;;;;76.25;51.45;;;11.90;99.90;;;;;;5038932;28;20056;-47
2022/10/15 01:11:17;;;;;;;83.25;53.42;;;11.90;99.90;;;;;;5034196;28;20090;-48
2022/10/15 01:13:56;;;;;;;72.63;53.45;;;11.90;99.90;;;;;;5038973;28;20055;-48
2022/10/15 01:16:31;;;;;;;84.35;53.90;;;11.90;99.90;;;;;;5044170;28;20139;-46
2022/10/15 01:19:05;;;;;;;73.72;51.33;;;11.90;99.90;;;;;;5036824;28;20124;-44
2022/10/15 01:21:41;;;;;;;73.30;51.90;;;12.00;99.90;;;;;;5043733;28;20056;-46
2022/10/15 01:24:37;;;;;;;78.05;53.58;;;12.00;99.90;;;;;;5052516;28;20040;-47
2022/10/15 01:27:02;;;;;;;73.63;52.65;;;12.00;99.90;;;;;;5036755;28;20044;-44
2022/10/15 01:29:57;;;;;;;73.63;53.60;;;12.00;99.90;;;;;;5040691;28;20049;-48
2022/10/15 01:32:28;;;;;;;75.05;52.85;;;12.00;99.90;;;;;;5045902;28;20060;-48
2022/10/15 01:35:28;;;;;;;67.25;50.58;;;12.00;99.90;;;;;;5051771;28;20086;-49
2022/10/15 01:37:57;;;;;;;73.97;51.08;;;12.00;99.90;;;;;;5041351;28;20049;-48
2022/10/15 01:40:32;;;;;;;74.05;50.65;;;12.00;99.90;;;;;;5039156;28;20041;-48
2022/10/15 01:43:00;;;;;;;79.15;51.90;;;11.90;99.90;;;;;;5037222;28;20053;-48
2022/10/15 01:45:37;;;;;;;74.55;50.85;;;12.00;99.90;;;;;;5043686;28;20040;-48
2022/10/15 01:48:10;;;;;;;75.00;52.78;;;12.00;99.90;;;;;;5037982;28;20184;-46
2022/10/15 01:50:41;;;;;;;78.40;53.20;;;12.00;99.90;;;;;;5040306;28;20041;-47
2022/10/15 01:53:07;;;;;;;78.45;52.70;;;12.00;99.90;;;;;;5054185;28;20055;-51
2022/10/15 01:55:35;;;;;;;79.13;53.00;;;12.00;99.90;;;;;;5053752;28;20578;-49
2022/10/15 01:58:02;;;;;;;81.15;54.42;;;12.00;99.90;;;;;;5037018;28;20128;-45
2022/10/15 02:00:28;;;;;;;79.70;54.67;;;12.00;99.90;;;;;;5034894;28;20041;-45
2022/10/15 02:03:01;;;;;;;80.47;53.63;;;12.00;99.90;;;;;;5045569;28;20517;-48
2022/10/15 02:05:37;;;;;;;;;;;12.00;99.90;;;;;;5057908;28;20048;-46
2022/10/15 02:08:19;;;;;;;78.07;51.03;;;12.00;99.90;;;;;;5058136;28;19927;-43
2022/10/15 02:10:59;;;;;;;72.32;49.20;;;12.00;99.90;;;;;;5050942;28;20037;-48
2022/10/15 02:14:01;;;;;;;74.55;54.20;;;12.00;99.90;;;;;;5051907;28;20451;-44
2022/10/15 02:16:30;;;;;;;79.93;53.58;;;11.90;99.90;;;;;;5037524;28;20126;-44
2022/10/15 02:19:18;;;;;;;75.75;51.10;;;11.90;99.90;;;;;;5058730;28;20149;-46
2022/10/15 02:21:51;;;;;;;70.20;50.92;;;11.90;99.90;;;;;;5058372;28;20051;-48
2022/10/15 02:24:20;;;;;;;74.63;50.72;;;11.80;99.90;;;;;;5046793;28;20056;-44
2022/10/15 02:26:47;;;;;;;74.88;51.70;;;11.80;99.90;;;;;;5056693;28;20514;-45
2022/10/15 02:29:18;;;;;;;73.80;50.90;;;11.80;99.90;;;;;;5057611;28;20494;-44
2022/10/15 02:31:46;;;;;;;74.38;52.13;;;11.70;99.90;;;;;;5057239;28;20052;-48
2022/10/15 02:34:16;;;;;;;76.43;51.90;;;11.80;99.90;;;;;;5057346;28;20045;-44
2022/10/15 02:36:41;;;;;;;72.05;50.33;;;11.70;99.90;;;;;;5056813;28;20052;-48
2022/10/15 02:39:11;;;;;;;69.60;48.75;;;11.70;99.90;;;;;;5055640;28;20048;-47
2022/10/15 02:41:38;;;;;;;68.40;49.65;;;11.80;99.90;;;;;;5057407;28;20053;-46
2022/10/15 02:44:04;;;;;;;77.72;50.58;;;11.80;99.90;;;;;;5044571;28;20045;-48
2022/10/15 02:46:30;;;;;;;78.60;53.15;;;11.80;99.90;;;;;;5072802;28;20090;-48
2022/10/15 02:48:56;;;;;;;73.40;50.55;;;11.80;99.90;;;;;;5045208;28;20151;-46
2022/10/15 02:51:22;;;;;;;79.00;52.45;;;11.80;99.90;;;;;;5048132;28;20087;-47
2022/10/15 02:53:47;;;;;;;82.40;54.45;;;11.70;99.90;;;;;;5052485;28;20121;-46
2022/10/15 02:56:13;;;;;;;76.80;50.60;;;11.80;99.90;;;;;;5045083;28;20384;-44
2022/10/15 02:58:39;;;;;;;85.43;53.15;;;11.80;99.90;;;;;;5057172;28;20493;-49
2022/10/15 03:01:04;;;;;;;77.72;52.63;;;11.80;99.90;;;;;;5057002;28;20040;-49
2022/10/15 03:03:30;;;;;;;88.20;55.70;;;11.80;99.90;;;;;;5056496;28;20044;-44
2022/10/15 03:05:56;;;;;;;85.30;53.92;;;11.80;99.90;;;;;;5057109;28;20424;-45
2022/10/15 03:08:22;;;;;;;92.57;55.42;;;11.70;99.90;;;;;;5048457;28;20068;-45
2022/10/15 03:10:47;;;;;;;89.43;54.00;;;11.70;99.90;;;;;;5055699;28;20036;-48
2022/10/15 03:13:13;;;;;;;85.50;53.42;;;11.70;99.90;;;;;;5053783;28;20040;-48
2022/10/15 03:15:39;;;;;;;93.30;54.20;;;11.70;99.90;;;;;;5050566;28;20110;-48
2022/10/15 03:18:05;;;;;;;88.93;52.72;;;11.70;99.90;;;;;;5050972;28;20048;-48
2022/10/15 03:20:31;;;;;;;94.03;54.80;;;11.70;99.90;;;;;;5036212;28;20045;-49
2022/10/15 03:22:56;;;;;;;86.20;53.17;;;11.80;99.90;;;;;;5046141;28;20048;-44
2022/10/15 03:25:22;;;;;;;86.25;53.97;;;11.70;99.90;;;;;;5057802;28;20063;-45
2022/10/15 03:27:48;;;;;;;94.43;56.03;;;11.80;99.90;;;;;;5054969;28;20075;-44
2022/10/15 03:30:13;;;;;;;95.72;57.95;;;11.80;99.90;;;;;;5037061;28;20052;-44
2022/10/15 03:32:39;;;;;;;96.13;55.45;;;11.80;99.90;;;;;;5049601;28;20585;-47
2022/10/15 03:35:05;;;;;;;90.55;53.45;;;11.80;99.90;;;;;;5050890;28;20041;-46
2022/10/15 03:37:31;;;;;;;85.07;55.00;;;11.70;99.90;;;;;;5049711;28;20410;-45
2022/10/15 03:39:56;;;;;;;87.75;53.03;;;11.70;99.90;;;;;;5049304;28;20063;-45
2022/10/15 03:42:22;;;;;;;92.68;54.33;;;11.80;99.90;;;;;;5048642;28;20048;-46
2022/10/15 03:44:48;;;;;;;91.28;55.20;;;11.80;99.90;;;;;;5054545;28;20048;-44
2022/10/15 03:47:13;;;;;;;79.10;52.45;;;11.80;99.90;;;;;;5043076;28;20048;-44
2022/10/15 03:49:39;;;;;;;83.85;53.28;;;11.70;99.90;;;;;;5057016;28;20044;-45
2022/10/15 03:52:04;;;;;;;85.63;49.42;;;11.70;99.90;;;;;;5056715;28;20157;-52
2022/10/15 03:54:30;;;;;;;76.70;49.83;;;11.70;99.90;;;;;;5049085;28;20049;-47
2022/10/15 03:56:56;;;;;;;77.00;49.00;;;11.60;99.90;;;;;;5049416;28;20564;-44
2022/10/15 03:59:22;;;;;;;78.78;50.35;;;11.70;99.90;;;;;;5043731;28;20152;-45
2022/10/15 04:01:47;;;;;;;87.18;51.03;;;11.70;99.90;;;;;;5055845;28;20053;-48
2022/10/15 04:04:13;;;;;;;81.82;50.50;;;11.70;99.90;;;;;;5055985;28;20080;-45
2022/10/15 04:06:39;;;;;;;81.85;50.25;;;11.70;99.90;;;;;;5053921;28;20434;-47
2022/10/15 04:09:05;;;;;;;82.50;51.47;;;11.70;99.90;;;;;;5049734;28;20056;-49
2022/10/15 04:11:31;;;;;;;84.20;54.13;;;11.60;99.90;;;;;;5048792;28;20056;-46
2022/10/15 04:13:56;;;;;;;81.38;50.90;;;11.70;99.90;;;;;;5043099;28;20451;-46
2022/10/15 04:16:22;;;;;;;83.68;51.95;;;11.70;99.90;;;;;;5055004;28;20048;-43
2022/10/15 04:18:48;;;;;;;86.55;53.80;;;11.60;99.90;;;;;;5048644;28;20044;-48
2022/10/15 04:21:13;;;;;;;87.40;53.20;;;11.60;99.90;;;;;;5033687;28;20075;-44
2022/10/15 04:23:39;;;;;;;83.25;53.15;;;11.60;99.90;;;;;;5055693;28;20052;-46
2022/10/15 04:26:05;;;;;;;90.32;54.28;;;11.70;99.90;;;;;;5053283;28;20067;-47
2022/10/15 04:28:32;;;;;;;94.55;56.42;;;11.60;99.90;;;;;;5055586;28;20060;-48
2022/10/15 04:30:58;;;;;;;94.55;56.53;;;11.70;99.90;;;;;;5054880;28;20041;-45
2022/10/15 04:33:24;;;;;;;83.47;55.38;;;11.60;99.90;;;;;;5055492;28;20134;-47
2022/10/15 04:36:10;;;;;;;87.50;53.40;;;11.60;99.90;;;;;;5053656;28;20040;-44
2022/10/15 04:38:35;;;;;;;94.10;58.08;;;11.60;99.90;;;;;;5056455;28;20048;-49
2022/10/15 04:41:04;;;;;;;96.72;57.75;;;11.60;99.90;;;;;;5055047;28;20391;-47
2022/10/15 04:43:30;;;;;;;92.45;58.05;;;11.60;99.90;;;;;;5039156;28;20136;-49
2022/10/15 04:45:57;;;;;;;89.55;57.95;;;11.50;99.90;;;;;;5050801;28;20137;-45
2022/10/15 04:48:23;;;;;;;96.95;60.22;;;11.60;99.90;;;;;;5054449;28;20476;-43
2022/10/15 04:50:49;;;;;;;103.38;61.58;;;11.60;99.90;;;;;;5054646;28;20052;-49
2022/10/15 04:53:14;;;;;;;94.13;58.53;;;11.60;99.90;;;;;;5053880;28;20052;-48
2022/10/15 04:55:40;;;;;;;100.97;60.95;;;11.60;99.90;;;;;;5054640;28;20309;-44
2022/10/15 04:58:06;;;;;;;107.05;63.85;;;11.60;99.90;;;;;;5055216;28;20048;-48
2022/10/15 05:00:32;;;;;;;106.15;64.93;;;11.60;99.90;;;;;;5054981;28;20571;-48
2022/10/15 05:02:57;;;;;;;107.43;65.10;;;11.50;99.90;;;;;;5054512;28;20048;-46
2022/10/15 05:05:23;;;;;;;102.60;63.70;;;11.50;99.90;;;;;;5042364;28;20700;-45
2022/10/15 05:07:48;;;;;;;111.60;65.22;;;11.50;99.90;;;;;;5054132;28;20056;-47
2022/10/15 05:10:14;;;;;;;111.32;67.28;;;11.50;99.90;;;;;;5042903;28;20406;-44
2022/10/15 05:12:40;;;;;;;113.30;66.22;;;11.50;99.90;;;;;;5055023;28;20086;-48
2022/10/15 05:15:06;;;;;;;119.78;68.88;;;11.50;99.90;;;;;;5043050;28;20591;-49
2022/10/15 05:17:31;;;;;;;116.75;67.43;;;11.50;99.90;;;;;;5044946;28;20091;-46
2022/10/15 05:19:57;;;;;;;118.55;69.85;;;11.50;99.90;;;;;;5050688;28;20328;-46
2022/10/15 05:22:23;;;;;;;113.05;69.72;;;11.60;99.90;;;;;;5054151;28;20052;-45
2022/10/15 05:24:48;;;;;;;117.35;70.45;;;11.50;99.90;;;;;;5052621;28;20061;-47
2022/10/15 05:27:14;;;;;;;119.85;70.25;;;11.60;99.90;;;;;;5045587;28;20049;-45
2022/10/15 05:29:40;;;;;;;122.80;73.25;;;11.50;99.90;;;;;;5049712;28;20052;-48
2022/10/15 05:32:05;;;;;;;121.40;72.47;;;11.50;99.90;;;;;;5054533;28;20479;-44
2022/10/15 05:34:32;;;;;;;123.68;71.13;;;11.50;99.90;;;;;;5052154;28;20049;-45
2022/10/15 05:36:58;;;;;;;137.80;75.28;;;11.50;99.90;;;;;;5043674;28;20502;-44
2022/10/15 05:39:24;;;;;;;121.93;72.82;;;11.50;99.90;;;;;;5041046;28;20052;-45
2022/10/15 05:41:49;;;;;;;131.90;73.95;;;11.50;99.90;;;;;;5044911;28;20485;-47
2022/10/15 05:44:15;;;;;;;129.07;75.57;;;11.50;99.90;;;;;;5047595;28;20487;-43
2022/10/15 05:46:41;;;;;;;122.93;73.82;;;11.50;99.90;;;;;;5043947;28;20380;-47
2022/10/15 05:49:06;;;;;;;140.55;77.03;;;11.60;99.90;;;;;;5055113;28;20192;-49
2022/10/15 05:51:32;;;;;;;136.07;77.35;;;11.60;99.90;;;;;;5053536;28;20105;-46
2022/10/15 05:53:58;;;;;;;128.40;74.18;;;11.60;99.90;;;;;;5053891;28;20040;-47
2022/10/15 05:56:24;;;;;;;134.02;76.28;;;11.60;99.90;;;;;;5054473;28;20041;-48
2022/10/15 05:58:50;;;;;;;139.15;76.65;;;11.60;99.90;;;;;;5042188;28;20044;-47
2022/10/15 06:01:16;;;;;;;123.82;72.72;;;11.60;99.90;;;;;;5054133;28;20502;-44
2022/10/15 06:03:43;;;;;;;137.45;77.20;;;11.60;99.90;;;;;;5055000;28;20044;-46
2022/10/15 06:06:17;;;;;;;142.52;78.18;;;11.70;99.90;;;;;;5054715;28;20551;-48
2022/10/15 06:08:43;;;;;;;137.27;76.90;;;11.60;99.90;;;;;;5049415;28;20045;-45
2022/10/15 06:11:08;;;;;;;136.55;77.95;;;11.60;99.90;;;;;;5048597;28;20048;-51
2022/10/15 06:13:34;;;;;;;134.85;75.90;;;11.60;99.90;;;;;;5074494;28;20107;-46
2022/10/15 06:16:02;;;;;;;132.75;76.97;;;11.70;99.90;;;;;;5058518;28;20059;-46
2022/10/15 06:18:28;;;;;;;139.68;78.43;;;11.70;99.90;;;;;;5045811;28;20721;-44
2022/10/15 06:20:54;;;;;;;141.35;78.75;;;11.70;99.90;;;;;;5058752;28;20129;-47
2022/10/15 06:23:20;;;;;;;147.48;78.60;;;11.70;99.90;;;;;;5057490;28;20522;-44
2022/10/15 06:25:46;;;;;;;135.65;77.22;;;11.70;99.90;;;;;;5059095;28;20059;-46
2022/10/15 06:28:11;;;;;;;140.38;77.40;;;11.70;99.90;;;;;;5053686;28;20408;-43
2022/10/15 06:30:37;;;;;;;145.82;77.38;;;11.70;99.90;;;;;;5050654;28;20097;-49
2022/10/15 06:33:03;;;;;;;127.93;74.20;;;11.70;99.90;;;;;;5058662;28;20159;-44
2022/10/15 06:35:35;;;;;;;150.68;79.18;;;11.70;99.90;;;;;;5057924;28;20048;-44
2022/10/15 06:38:04;;;;;;;145.45;79.53;;;11.70;99.90;;;;;;5045338;28;20052;-48
2022/10/15 06:40:31;;;;;;;152.63;80.80;;;11.80;99.90;;;;;;5058292;28;20119;-45
2022/10/15 06:43:08;;;;;;;152.88;78.57;;;11.80;99.90;;;;;;5072167;28;20163;-45
2022/10/15 06:45:36;;;;;;;147.68;80.15;;;11.80;99.90;;;;;;5057645;28;20055;-45
2022/10/15 06:48:03;;;;;;;135.43;78.40;;;11.80;99.90;;;;;;5050431;28;20044;-46
2022/10/15 06:50:33;;;;;;;139.60;78.38;;;11.80;99.90;;;;;;5050728;28;20221;-45
2022/10/15 06:52:59;;;;;;;118.28;69.68;;;11.80;99.90;;;;;;5048583;28;20492;-46
2022/10/15 06:55:25;;;;;;;133.82;76.00;;;11.80;99.90;;;;;;5051453;28;20459;-46
2022/10/15 06:57:50;;;;;;;138.05;77.93;;;11.90;99.90;;;;;;5039992;28;20710;-48
2022/10/15 07:00:16;;;;;;;137.55;80.70;;;11.90;99.90;;;;;;5052826;28;20410;-48
2022/10/15 07:02:42;;;;;;;127.70;76.25;;;11.90;99.90;;;;;;5054278;28;20040;-44
2022/10/15 07:05:08;;;;;;;127.60;75.25;;;11.90;99.90;;;;;;5039401;28;20462;-46
2022/10/15 07:07:34;;;;;;;120.60;74.40;;;12.00;99.90;;;;;;5048633;28;20131;-49
2022/10/15 07:09:59;;;;;;;121.50;74.10;;;12.00;99.90;;;;;;5041239;28;20059;-47
2022/10/15 07:12:25;;;;;;;129.50;75.03;;;12.00;99.90;;;;;;5042539;28;20402;-45
2022/10/15 07:14:51;;;;;;;131.05;76.75;;;12.00;99.90;;;;;;5048296;28;20164;-45
2022/10/15 07:17:16;;;;;;;131.05;76.63;;;12.00;99.90;;;;;;5042391;28;20588;-44
2022/10/15 07:19:42;;;;;;;129.18;76.63;;;12.00;99.90;;;;;;5041172;28;20048;-47
2022/10/15 07:22:09;;;;;;;125.70;76.47;;;12.10;99.90;;;;;;5038686;28;20123;-47
2022/10/15 07:24:35;;;;;;;128.48;75.70;;;12.10;99.90;;;;;;5039871;28;20049;-45
2022/10/15 07:27:00;;;;;;;126.50;78.28;;;12.10;99.90;;;;;;5035243;28;20084;-44
2022/10/15 07:29:26;;;;;;;129.38;77.90;;;12.10;99.90;;;;;;5034369;28;20049;-43
2022/10/15 07:31:52;;;;;;;130.82;77.07;;;12.20;99.90;;;;;;5045578;28;20144;-48
2022/10/15 07:34:18;;;;;;;125.28;78.07;;;12.20;99.90;;;;;;5048653;28;20093;-44
2022/10/15 07:36:43;;;;;;;122.32;76.45;;;12.30;99.90;;;;;;5032942;28;20447;-44
2022/10/15 07:39:09;;;;;;;132.95;79.07;;;12.30;99.90;;;;;;5037623;28;20044;-50
2022/10/15 07:41:35;;;;;;;138.77;79.90;;;12.30;99.90;;;;;;5042697;28;20131;-45
2022/10/15 07:44:01;;;;;;;140.82;81.80;;;12.30;99.90;;;;;;5041756;28;20139;-45
2022/10/15 07:46:27;;;;;;;137.10;80.53;;;12.40;99.90;;;;;;5031985;28;20056;-46
2022/10/15 07:48:52;;;;;;;141.30;82.30;;;12.40;99.90;;;;;;5044455;28;20052;-47
2022/10/15 07:51:18;;;;;;;142.27;78.20;;;12.40;99.90;;;;;;5044488;28;20060;-46
2022/10/15 07:53:46;;;;;;;140.77;79.32;;;12.40;99.90;;;;;;5042700;28;20102;-47
2022/10/15 07:56:14;;;;;;;142.55;82.13;;;12.40;99.90;;;;;;5051181;28;20383;-43
2022/10/15 07:58:40;;;;;;;148.88;80.82;;;12.40;99.90;;;;;;5052820;28;20076;-48
2022/10/15 08:01:09;;;;;;;147.82;80.85;;;12.50;99.90;;;;;;5052124;28;20452;-50
2022/10/15 08:03:36;;;;;;;148.60;79.72;;;12.50;99.90;;;;;;5041970;28;20049;-48
2022/10/15 08:06:05;;;;;;;144.73;78.97;;;12.50;99.90;;;;;;5046967;28;20070;-48
2022/10/15 08:08:32;;;;;;;146.00;79.75;;;12.50;99.90;;;;;;5040895;28;20426;-44
2022/10/15 08:10:57;;;;;;;133.52;74.05;;;12.60;99.90;;;;;;5041415;28;20458;-49
2022/10/15 08:13:23;;;;;;;142.20;79.10;;;12.50;99.90;;;;;;5050282;28;20615;-45
2022/10/15 08:15:49;;;;;;;154.27;78.28;;;12.50;99.90;;;;;;5049221;28;20447;-47
2022/10/15 08:18:15;;;;;;;141.45;73.45;;;12.60;99.90;;;;;;5047548;28;20036;-46
2022/10/15 08:20:41;;;;;;;135.75;73.15;;;12.70;99.90;;;;;;5032672;28;20383;-49
2022/10/15 08:23:13;;;;;;;136.38;74.25;;;12.70;99.90;;;;;;5037190;28;20087;-48
2022/10/15 08:25:39;;;;;;;125.38;70.85;;;12.60;99.90;;;;;;5041926;28;20059;-46
2022/10/15 08:28:05;;;;;;;129.20;73.25;;;12.80;99.90;;;;;;5063756;28;20052;-48
2022/10/15 08:30:31;;;;;;;143.00;77.43;;;12.70;99.90;;;;;;5039285;28;20043;-44
2022/10/15 08:32:56;;;;;;;136.38;75.88;;;12.60;99.90;;;;;;5052117;28;20047;-46
2022/10/15 08:35:22;;;;;;;138.32;76.68;;;12.70;99.90;;;;;;5043515;28;20056;-44
2022/10/15 08:37:48;;;;;;;122.68;74.00;;;12.60;99.90;;;;;;5043465;28;20095;-43
2022/10/15 08:40:14;;;;;;;119.25;72.20;;;12.50;99.90;;;;;;5034920;28;20198;-44
2022/10/15 08:42:44;;;;;;;121.18;71.15;;;12.60;99.90;;;;;;5033683;28;20044;-48
2022/10/15 08:45:16;;;;;;;140.07;72.53;;;12.60;99.90;;;;;;5040984;28;20083;-47
2022/10/15 08:47:50;;;;;;;126.15;72.13;;;12.60;99.90;;;;;;5039413;28;20440;-44
2022/10/15 08:50:24;;;;;;;119.88;71.45;;;12.70;99.90;;;;;;5051621;28;20410;-47
2022/10/15 08:52:51;;;;;;;112.30;68.70;;;12.60;99.90;;;;;;5038831;28;20056;-48
2022/10/15 08:55:19;;;;;;;123.70;72.28;;;12.60;99.90;;;;;;5051539;28;20062;-46
2022/10/15 08:57:58;;;;;;;112.82;66.15;;;12.60;99.90;;;;;;5039245;28;20458;-45
2022/10/15 09:00:34;;;;;;;96.13;57.70;;;12.60;99.90;;;;;;5045446;28;20495;-48
2022/10/15 09:03:03;;;;;;;94.15;58.38;;;12.60;99.90;;;;;;5051904;28;20063;-47
2022/10/15 09:05:43;;;;;;;105.15;62.65;;;12.60;99.90;;;;;;5045399;28;20080;-49
2022/10/15 09:08:12;;;;;;;104.45;63.20;;;12.70;99.90;;;;;;5033400;28;20041;-47
2022/10/15 09:10:45;;;;;;;93.97;55.38;;;12.60;99.90;;;;;;5039000;28;20830;-49
2022/10/15 09:13:15;;;;;;;87.50;53.45;;;12.70;99.90;;;;;;5050767;28;20441;-44
2022/10/15 09:15:49;;;;;;;82.70;52.47;;;12.80;99.90;;;;;;5048266;28;20059;-45
2022/10/15 09:18:23;;;;;;;92.20;56.60;;;12.80;99.90;;;;;;5047471;28;20110;-45
2022/10/15 09:20:49;;;;;;;87.32;55.60;;;12.90;99.90;;;;;;5050069;28;20040;-48
2022/10/15 09:23:22;;;;;;;86.10;56.10;;;12.90;99.90;;;;;;5037168;28;20079;-47
2022/10/15 09:26:03;;;;;;;68.65;48.00;;;12.80;99.90;;;;;;5039810;28;20059;-49
2022/10/15 09:28:39;;;;;;;79.82;47.97;;;12.90;99.90;;;;;;5048229;28;20045;-51
2022/10/15 09:31:08;;;;;;;66.15;44.67;;;13.00;99.90;;;;;;5047847;28;20041;-48
2022/10/15 09:33:56;;;;;;;68.22;45.55;;;13.00;99.90;;;;;;5042559;28;20056;-45
2022/10/15 09:36:40;;;;;;;65.10;42.35;;;13.00;99.90;;;;;;5033038;28;20064;-47
2022/10/15 09:39:08;;;;;;;65.22;41.70;;;13.10;99.90;;;;;;5049931;28;20052;-43
2022/10/15 09:41:40;;;;;;;64.68;40.08;;;13.10;99.90;;;;;;5042901;28;20063;-47
2022/10/15 09:44:12;;;;;;;61.22;41.47;;;13.10;99.90;;;;;;5053034;28;20439;-50
2022/10/15 09:46:49;;;;;;;62.65;40.40;;;13.10;99.90;;;;;;5046417;28;20041;-49
2022/10/15 09:49:26;;;;;;;57.15;38.33;;;13.10;99.90;;;;;;5050863;28;20041;-47
2022/10/15 09:51:55;;;;;;;59.28;39.75;;;13.10;99.90;;;;;;5047230;28;20493;-47
2022/10/15 09:54:26;;;;;;;57.58;38.83;;;13.10;99.90;;;;;;5054637;28;20044;-44
2022/10/15 09:56:54;;;;;;;66.78;40.17;;;13.20;99.90;;;;;;5055707;28;20458;-45
2022/10/15 09:59:22;;;;;;;63.70;39.85;;;13.20;99.90;;;;;;5050508;28;20596;-47
2022/10/15 10:02:00;;;;;;;57.08;36.67;;;13.30;99.90;;;;;;5038955;28;20052;-48
2022/10/15 10:04:32;;;;;;;49.67;35.22;;;13.40;99.90;;;;;;5042438;28;20044;-44
2022/10/15 10:07:01;;;;;;;47.90;33.75;;;13.50;99.90;;;;;;5042686;28;20044;-48
2022/10/15 10:09:52;;;;;;;45.13;32.70;;;13.60;99.90;;;;;;5042166;28;20163;-45
2022/10/15 10:12:21;;;;;;;41.78;31.02;;;13.70;99.90;;;;;;5036639;28;20056;-47
2022/10/15 10:15:24;;;;;;;41.00;30.00;;;13.80;99.90;;;;;;5043701;28;20600;-44
2022/10/15 10:17:55;;;;;;;41.83;29.73;;;13.90;99.90;;;;;;5043228;28;20507;-46
2022/10/15 10:20:23;;;;;;;38.33;27.85;;;13.90;99.90;;;;;;5041048;28;20159;-45
2022/10/15 10:22:51;;;;;;;37.60;27.80;;;13.90;99.90;;;;;;5055363;28;20823;-48
2022/10/15 10:25:39;;;;;;;37.35;27.20;;;14.00;99.90;;;;;;5043050;28;20049;-46
2022/10/15 10:28:08;;;;;;;33.58;25.88;;;14.00;99.90;;;;;;5040625;28;20045;-46
2022/10/15 10:30:50;;;;;;;35.45;25.98;;;14.10;99.90;;;;;;5053069;28;20052;-46
2022/10/15 10:33:24;;;;;;;27.60;23.15;;;14.20;99.90;;;;;;5051984;28;20052;-44
2022/10/15 10:35:50;;;;;;;31.20;24.40;;;14.30;99.90;;;;;;5043606;28;20522;-50
2022/10/15 10:38:24;;;;;;;30.98;23.42;;;14.30;99.90;;;;;;5034562;28;20491;-45
2022/10/15 10:40:55;;;;;;;30.42;23.80;;;14.20;99.90;;;;;;5042665;28;20220;-48
2022/10/15 10:43:25;;;;;;;30.00;25.00;;;14.30;99.90;;;;;;5049068;28;20052;-48
2022/10/15 10:46:03;;;;;;;27.45;21.17;;;14.30;99.90;;;;;;5052921;28;20135;-51
2022/10/15 10:48:38;;;;;;;27.25;22.88;;;14.30;99.90;;;;;;5055156;28;20044;-46
2022/10/15 10:51:09;;;;;;;25.45;22.48;;;14.30;99.90;;;;;;5037489;28;20060;-49
2022/10/15 10:54:15;;;;;;;28.65;21.13;;;14.30;99.90;;;;;;5053009;28;20052;-45
2022/10/15 10:56:43;;;;;;;28.60;22.95;;;14.40;99.90;;;;;;5010214;28;20140;-47
2022/10/15 10:59:12;;;;;;;25.33;19.98;;;14.40;99.90;;;;;;5010852;28;20526;-46
2022/10/15 11:01:37;;;;;;;24.67;20.95;;;14.40;99.90;;;;;;5011514;28;20514;-46
2022/10/15 11:04:03;;;;;;;23.55;20.25;;;14.40;99.90;;;;;;4992855;28;20332;-45
2022/10/15 11:06:56;;;;;;;22.02;19.10;;;14.50;99.90;;;;;;5009621;28;20592;-50
2022/10/15 11:09:40;;;;;;;22.70;19.63;;;14.60;99.90;;;;;;5009410;28;20049;-46
2022/10/15 11:12:27;;;;;;;22.70;20.30;;;14.70;99.90;;;;;;5011301;28;20275;-52
2022/10/15 11:15:01;;;;;;;22.05;19.05;;;14.80;99.90;;;;;;5009133;28;20516;-44
2022/10/15 11:17:40;;;;;;;22.65;20.25;;;15.00;99.90;;;;;;5010791;28;20060;-46
2022/10/15 11:20:28;;;;;;;21.15;18.67;;;15.00;99.90;;;;;;5009837;28;20292;-45
2022/10/15 11:23:03;;;;;;;21.05;18.83;;;15.10;99.90;;;;;;4993098;28;20050;-49
2022/10/15 11:25:42;;;;;;;22.20;18.25;;;15.20;99.90;;;;;;5010902;28;20076;-45
2022/10/15 11:28:25;;;;;;;20.95;18.65;;;15.10;99.90;;;;;;5009585;28;20076;-52
2022/10/15 11:31:04;;;;;;;19.35;17.30;;;15.10;99.90;;;;;;5021353;28;20075;-48
2022/10/15 11:34:10;;;;;;;21.00;18.77;;;15.30;99.90;;;;;;5035320;28;20494;-48
2022/10/15 11:37:07;;;;;;;20.95;18.85;;;15.30;99.90;;;;;;5036701;28;20123;-53
2022/10/15 11:39:45;;;;;;;19.73;17.73;;;15.30;99.90;;;;;;5049247;28;20132;-47
2022/10/15 11:42:28;;;;;;;20.35;18.17;;;15.30;99.90;;;;;;5043247;28;20036;-45
2022/10/15 11:45:02;;;;;;;20.30;18.30;;;15.30;99.90;;;;;;5041199;28;20047;-47
2022/10/15 11:47:49;;;;;;;22.35;18.73;;;15.30;99.90;;;;;;5042775;28;20482;-46
2022/10/15 11:51:02;;;;;;;22.17;19.88;;;15.20;99.90;;;;;;5047504;28;20501;-47
2022/10/15 11:53:36;;;;;;;18.73;16.80;;;15.30;99.90;;;;;;4974088;28;20077;-48
2022/10/15 11:56:18;;;;;;;20.48;18.38;;;15.20;99.90;;;;;;4990542;28;20058;-48
2022/10/15 11:58:44;;;;;;;20.65;18.55;;;15.20;99.90;;;;;;4991234;28;20049;-47
2022/10/15 12:01:13;;;;;;;20.83;18.67;;;15.30;99.90;;;;;;4991007;28;20057;-51
2022/10/15 12:03:52;;;;;;;21.20;19.00;;;15.30;99.90;;;;;;4976838;28;20050;-51
2022/10/15 12:06:22;;;;;;;19.45;17.45;;;15.30;99.90;;;;;;4991127;28;20438;-49
2022/10/15 12:08:51;;;;;;;21.60;19.20;;;15.20;99.90;;;;;;4989687;28;20068;-45
2022/10/15 12:11:22;;;;;;;23.02;20.40;;;15.20;99.90;;;;;;4989846;28;20157;-47
2022/10/15 12:13:58;;;;;;;21.88;19.52;;;15.30;99.90;;;;;;4990897;28;20061;-45
2022/10/15 12:16:52;;;;;;;23.70;21.20;;;15.20;99.90;;;;;;4989417;28;20128;-48
2022/10/15 12:19:23;;;;;;;22.45;20.08;;;15.20;99.90;;;;;;4974104;28;21416;-47
2022/10/15 12:21:54;;;;;;;24.15;21.65;;;15.10;99.90;;;;;;4993668;28;20148;-46
2022/10/15 12:24:43;;;;;;;28.85;23.85;;;15.10;99.90;;;;;;4991215;28;20050;-49
2022/10/15 12:27:18;;;;;;;27.48;21.60;;;15.00;99.90;;;;;;4953654;28;20148;-48
2022/10/15 12:29:47;;;;;;;26.70;22.25;;;14.90;99.90;;;;;;5008779;28;20170;-51
2022/10/15 12:32:26;;;;;;;26.80;23.25;;;14.90;99.90;;;;;;5010060;28;20136;-49
2022/10/15 12:34:56;;;;;;;27.15;23.73;;;14.80;99.90;;;;;;5009140;28;20562;-49
2022/10/15 12:37:25;;;;;;;29.23;24.02;;;14.90;99.90;;;;;;5009712;28;20071;-47
2022/10/15 12:39:58;;;;;;;29.52;23.25;;;14.90;99.90;;;;;;5008820;28;20049;-45